Time;durP1;ratioP1;P1;durP2;ratioP2;P2;SDS_P1;SDS_P2;PMS_P1;PMS_P2;Temp;Humidity;BMP_temperature;BMP_pressure;BME280_temperature;BME280_humidity;BME280_pressure;Samples;Min_cycle;Max_cycle;Signal;HPM_P1;HPM_P2
2023/04/09 00:00:24;;;;;;;23.58;10.18;;;;;;;7.42;85.93;102572.84;10531909;28;20065;-77
2023/04/09 00:05:26;;;;;;;26.98;10.38;;;;;;;7.42;85.84;102567.63;10539014;28;20122;-77
2023/04/09 00:10:28;;;;;;;20.95;10.27;;;;;;;7.40;85.97;102569.22;10534063;28;20040;-77
2023/04/09 00:15:29;;;;;;;24.35;10.38;;;;;;;7.40;86.13;102571.84;10522452;28;20044;-76
2023/04/09 00:20:32;;;;;;;24.05;10.65;;;;;;;7.36;85.90;102569.88;10547767;28;20328;-76
2023/04/09 00:25:34;;;;;;;27.80;11.77;;;;;;;7.32;86.20;102560.09;10540872;28;20044;-76
2023/04/09 00:30:35;;;;;;;29.00;12.25;;;;;;;7.34;86.27;102568.88;10563791;28;20475;-77
2023/04/09 00:35:37;;;;;;;27.60;11.00;;;;;;;7.33;86.40;102556.69;10511337;28;20518;-76
2023/04/09 00:40:38;;;;;;;19.60;9.43;;;;;;;7.31;86.49;102556.59;10524451;28;20046;-77
2023/04/09 00:45:40;;;;;;;24.23;11.82;;;;;;;7.24;86.62;102550.09;10545812;28;20491;-76
2023/04/09 00:50:42;;;;;;;22.45;11.20;;;;;;;7.26;86.59;102544.97;10531992;28;20127;-76
2023/04/09 00:55:44;;;;;;;25.30;10.52;;;;;;;7.22;86.73;102541.31;10535876;28;20062;-76
2023/04/09 01:00:46;;;;;;;23.83;10.77;;;;;;;7.18;86.92;102536.72;10535808;28;20040;-76
2023/04/09 01:05:59;;;;;;;25.15;10.52;;;;;;;7.14;87.06;102542.53;10531940;28;20051;-77
2023/04/09 01:11:31;;;;;;;26.42;11.30;;;;;;;7.12;87.11;102530.25;10538015;28;20559;-76
2023/04/09 01:16:35;;;;;;;25.88;11.05;;;;;;;7.11;87.17;102544.09;10547679;28;20040;-76
2023/04/09 01:21:40;;;;;;;23.48;9.68;;;;;;;7.11;87.17;102536.28;10533554;27;20760;-77
2023/04/09 01:27:03;;;;;;;27.10;10.80;;;;;;;7.07;87.25;102536.09;10536461;28;20032;-76
2023/04/09 01:32:24;;;;;;;25.23;10.95;;;;;;;7.06;87.37;102538.59;10531473;28;20097;-76
2023/04/09 01:37:26;;;;;;;25.67;11.07;;;;;;;7.05;87.48;102532.47;10568795;28;20105;-77
2023/04/09 01:42:28;;;;;;;20.08;9.60;;;;;;;7.04;87.56;102535.91;10554297;28;20048;-76
2023/04/09 01:47:30;;;;;;;24.02;9.70;;;;;;;7.03;87.90;102536.72;10542503;28;20043;-77
2023/04/09 01:52:33;;;;;;;29.50;9.75;;;;;;;7.03;87.82;102538.44;10544350;28;20047;-76
2023/04/09 01:57:34;;;;;;;28.20;10.00;;;;;;;6.97;87.90;102535.47;10542611;28;20047;-77
2023/04/09 02:02:47;;;;;;;27.17;10.55;;;;;;;6.89;87.74;102541.09;10526291;28;20414;-76
2023/04/09 02:07:55;;;;;;;18.67;9.52;;;;;;;6.87;87.97;102537.47;10558951;28;20036;-76
2023/04/09 02:13:00;;;;;;;20.60;9.35;;;;;;;6.89;88.15;102541.09;10539690;28;20687;-76
2023/04/09 02:18:01;;;;;;;27.80;10.30;;;;;;;6.87;88.34;102537.47;10549123;28;20632;-77
2023/04/09 02:23:03;;;;;;;20.27;9.25;;;;;;;6.84;88.48;102536.41;10515443;28;20138;-76
2023/04/09 02:28:05;;;;;;;27.60;9.27;;;;;;;6.81;88.53;102526.69;10544663;28;20044;-77
2023/04/09 02:33:06;;;;;;;24.70;9.13;;;;;;;6.79;88.67;102532.66;10506885;28;20044;-77
2023/04/09 02:38:13;;;;;;;18.90;8.57;;;;;;;6.72;88.69;102523.53;10542477;28;20044;-77
2023/04/09 02:43:14;;;;;;;21.63;9.00;;;;;;;6.70;88.98;102522.56;10567008;28;20069;-77
2023/04/09 02:48:16;;;;;;;29.55;8.93;;;;;;;6.68;89.19;102517.28;10532390;28;20043;-77
2023/04/09 02:53:20;;;;;;;24.05;10.65;;;;;;;6.66;89.14;102515.38;10521192;28;20044;-76
2023/04/09 02:58:21;;;;;;;17.15;8.10;;;;;;;6.64;89.31;102509.19;10521650;28;20078;-77
2023/04/09 03:03:23;;;;;;;25.65;8.40;;;;;;;6.65;89.27;102500.53;10518619;28;20044;-77
2023/04/09 03:08:25;;;;;;;17.65;8.88;;;;;;;6.65;89.37;102497.94;10522632;28;20064;-77
2023/04/09 03:13:27;;;;;;;17.75;8.32;;;;;;;6.61;89.55;102495.97;10504539;28;20044;-77
2023/04/09 03:18:28;;;;;;;19.60;9.07;;;;;;;6.59;89.51;102489.75;10513568;28;20051;-77
2023/04/09 03:23:33;;;;;;;18.13;8.13;;;;;;;6.57;89.72;102489.66;10503350;28;20063;-77
2023/04/09 03:28:35;;;;;;;18.55;8.15;;;;;;;6.57;89.71;102483.59;10501709;28;20605;-77
2023/04/09 03:33:37;;;;;;;24.52;8.95;;;;;;;6.57;89.71;102487.06;10489539;28;20058;-76
2023/04/09 03:38:38;;;;;;;12.63;7.20;;;;;;;6.55;89.71;102486.97;10503860;28;20044;-76
2023/04/09 03:43:47;;;;;;;17.92;8.35;;;;;;;6.58;89.85;102485.38;10527146;28;20449;-77
2023/04/09 03:48:54;;;;;;;20.92;9.02;;;;;;;6.55;89.96;102486.97;10527820;28;20149;-77
2023/04/09 03:53:59;;;;;;;18.20;7.75;;;;;;;6.53;90.09;102478.19;10528074;28;20048;-77
2023/04/09 03:59:01;;;;;;;23.95;10.07;;;;;;;6.55;90.05;102473.97;10531524;28;20048;-77
2023/04/09 04:04:10;;;;;;;16.10;7.50;;;;;;;6.57;89.92;102465.38;10506482;28;20072;-76
2023/04/09 04:09:26;;;;;;;17.95;8.10;;;;;;;6.55;90.31;102473.06;10529748;28;20433;-77
2023/04/09 04:14:31;;;;;;;20.77;9.07;;;;;;;6.52;90.13;102475.50;10535371;28;20080;-77
2023/04/09 04:19:39;;;;;;;16.65;7.75;;;;;;;6.48;90.20;102478.72;10534002;28;20047;-77
2023/04/09 04:24:41;;;;;;;23.42;7.97;;;;;;;6.39;90.32;102473.84;10508755;28;20787;-77
2023/04/09 04:29:43;;;;;;;18.02;7.80;;;;;;;6.35;90.14;102483.19;10550314;28;20036;-76
2023/04/09 04:34:56;;;;;;;15.30;6.70;;;;;;;6.33;90.20;102486.47;10512459;28;20698;-77
2023/04/09 04:40:01;;;;;;;23.15;8.98;;;;;;;6.29;90.08;102485.41;10552670;28;20040;-76
2023/04/09 04:45:05;;;;;;;18.85;7.93;;;;;;;6.24;90.19;102494.59;10503163;28;20036;-76
2023/04/09 04:50:26;;;;;;;14.93;7.53;;;;;;;6.23;90.22;102499.72;10537554;28;20292;-76
2023/04/09 04:55:36;;;;;;;23.17;8.82;;;;;;;6.12;90.22;102499.94;10527769;28;20100;-76
2023/04/09 05:00:38;;;;;;;15.93;7.03;;;;;;;6.05;90.30;102502.97;10542860;28;20040;-77
2023/04/09 05:05:40;;;;;;;21.58;6.00;;;;;;;5.99;90.34;102502.56;10545623;28;20051;-76
2023/04/09 05:10:43;;;;;;;15.18;7.25;;;;;;;6.00;90.40;102501.78;10536791;28;20036;-76
2023/04/09 05:15:46;;;;;;;12.43;6.28;;;;;;;6.04;90.52;102503.78;10531291;28;20046;-77
2023/04/09 05:20:47;;;;;;;13.75;6.95;;;;;;;6.10;90.57;102501.56;10530828;28;20078;-76
2023/04/09 05:25:50;;;;;;;16.80;7.15;;;;;;;6.13;90.43;102511.25;10555260;28;20036;-77
2023/04/09 05:30:59;;;;;;;14.18;5.75;;;;;;;6.17;90.68;102505.41;10523457;28;20139;-77
2023/04/09 05:36:01;;;;;;;13.73;6.28;;;;;;;6.21;90.79;102509.13;10534578;28;20062;-76
2023/04/09 05:41:03;;;;;;;20.90;7.18;;;;;;;6.22;91.07;102510.94;10531339;28;20029;-76
2023/04/09 05:46:08;;;;;;;15.85;7.00;;;;;;;6.29;90.87;102518.31;10534870;28;20511;-77
2023/04/09 05:51:09;;;;;;;16.38;5.72;;;;;;;6.33;90.80;102525.50;10543783;28;20280;-76
2023/04/09 05:56:14;;;;;;;13.13;5.68;;;;;;;6.31;90.66;102527.13;10527515;28;20577;-76
2023/04/09 06:01:23;;;;;;;13.18;5.55;;;;;;;6.34;90.54;102530.81;10541694;28;20040;-77
2023/04/09 06:06:25;;;;;;;13.80;5.63;;;;;;;6.40;90.19;102526.81;10541633;28;20051;-76
2023/04/09 06:11:27;;;;;;;11.52;5.45;;;;;;;6.52;89.61;102518.03;10533175;28;20487;-76
2023/04/09 06:16:28;;;;;;;11.77;5.03;;;;;;;6.46;88.86;102516.75;10541083;28;20515;-77
2023/04/09 06:21:32;;;;;;;13.10;5.32;;;;;;;6.60;88.50;102518.50;10549978;28;20047;-77
2023/04/09 06:26:33;;;;;;;14.57;6.10;;;;;;;6.66;87.88;102528.38;10531992;28;20032;-77
2023/04/09 06:31:35;;;;;;;11.32;5.20;;;;;;;6.73;87.21;102523.63;10549674;28;20688;-77
2023/04/09 06:36:39;;;;;;;19.08;6.75;;;;;;;6.68;86.77;102516.34;10549799;28;20577;-76
2023/04/09 06:41:40;;;;;;;14.25;6.18;;;;;;;6.64;86.55;102517.88;10548616;28;20033;-77
2023/04/09 06:46:55;;;;;;;12.10;5.55;;;;;;;6.69;86.33;102520.75;10528756;28;20048;-77
2023/04/09 06:51:56;;;;;;;12.32;5.18;;;;;;;6.71;86.11;102525.25;10526759;28;20412;-77
2023/04/09 06:56:58;;;;;;;16.50;5.68;;;;;;;6.88;85.93;102517.56;10543570;28;20055;-77
2023/04/09 07:01:59;;;;;;;12.25;4.88;;;;;;;7.00;85.58;102525.22;10553931;28;20040;-76
2023/04/09 07:07:01;;;;;;;13.93;4.78;;;;;;;7.14;85.18;102532.13;10532230;28;20232;-76
2023/04/09 07:12:03;;;;;;;10.48;5.43;;;;;;;7.28;85.08;102534.66;10529232;28;20031;-76
2023/04/09 07:17:04;;;;;;;15.90;6.90;;;;;;;7.28;85.08;102534.66;10552421;28;20039;-76
2023/04/09 07:22:06;;;;;;;20.02;6.65;;;;;;;8.83;82.66;102534.53;10548208;28;20603;-77
2023/04/09 07:27:08;;;;;;;13.93;6.75;;;;;;;9.29;80.70;102547.34;10553726;28;20053;-77
2023/04/09 07:32:10;;;;;;;11.63;5.63;;;;;;;9.50;79.33;102557.06;10538579;28;20526;-77
2023/04/09 07:37:11;;;;;;;20.85;7.35;;;;;;;-147.53;100.00;57128.34;10547460;28;20051;-77
2023/04/09 07:42:13;;;;;;;14.40;6.07;;;;;;;-147.53;100.00;57128.34;10537567;28;20043;-77
2023/04/09 07:47:15;;;;;;;17.70;6.47;;;;;;;-147.53;100.00;57128.34;10545465;28;20537;-77
2023/04/09 07:52:16;;;;;;;17.70;6.40;;;;;;;-147.53;100.00;57128.34;10557819;28;20047;-77
2023/04/09 07:57:18;;;;;;;16.13;6.57;;;;;;;9.50;79.33;102557.06;10541046;28;20504;-77
2023/04/09 08:02:20;;;;;;;13.75;6.57;;;;;;;10.78;72.75;102556.16;10540282;28;20036;-77
2023/04/09 08:07:21;;;;;;;18.08;7.07;;;;;;;10.50;72.15;102561.88;10556326;28;20050;-77
2023/04/09 08:12:23;;;;;;;15.77;6.75;;;;;;;10.55;72.13;102556.84;10547243;28;20031;-77
2023/04/09 08:17:24;;;;;;;15.73;6.28;;;;;;;10.85;71.99;102549.44;10530592;28;20052;-77
2023/04/09 08:22:26;;;;;;;12.98;5.97;;;;;;;10.73;71.48;102544.59;10545115;28;20035;-77
2023/04/09 08:27:27;;;;;;;12.43;5.30;;;;;;;11.59;70.99;102543.81;10546492;28;20586;-77
2023/04/09 08:32:29;;;;;;;15.00;6.68;;;;;;;-147.53;100.00;57128.34;10539699;28;20531;-77
2023/04/09 08:37:31;;;;;;;14.13;6.65;;;;;;;-147.53;100.00;57128.34;10535782;28;20049;-77
2023/04/09 08:42:34;;;;;;;14.02;6.18;;;;;;;-147.53;100.00;57128.34;10546606;28;20039;-77
2023/04/09 08:47:36;;;;;;;12.48;5.20;;;;;;;-147.53;100.00;57128.34;10563255;28;20051;-77
2023/04/09 08:52:39;;;;;;;13.02;5.40;;;;;;;-147.53;100.00;57128.34;10519108;28;20140;-77
2023/04/09 08:57:41;;;;;;;14.63;5.95;;;;;;;-147.53;100.00;57128.34;10536216;28;20523;-77
2023/04/09 09:03:03;;;;;;;13.80;6.55;;;;;;;-147.53;100.00;57128.34;10533516;28;20085;-78
2023/04/09 09:08:09;;;;;;;15.35;5.88;;;;;;;-147.53;100.00;57128.34;10528412;28;20559;-77
2023/04/09 09:13:25;;;;;;;13.77;5.97;;;;;;;-147.53;100.00;57128.34;10522190;28;20515;-77
2023/04/09 09:18:41;;;;;;;13.73;5.75;;;;;;;11.59;70.99;102543.81;10540158;28;20050;-77
2023/04/09 09:23:43;;;;;;;12.18;6.07;;;;;;;-147.53;100.00;57128.34;10534617;28;20032;-77
2023/04/09 09:28:47;;;;;;;16.00;6.20;;;;;;;-147.53;100.00;57128.34;10553001;28;20445;-77
2023/04/09 09:33:50;;;;;;;13.23;6.50;;;;;;;-147.53;100.00;57128.34;10543331;28;20047;-77
2023/04/09 09:38:54;;;;;;;16.60;6.53;;;;;;;-147.53;100.00;57128.34;10543554;28;20042;-77
2023/04/09 09:43:56;;;;;;;13.15;6.05;;;;;;;-147.53;100.00;57128.34;10540614;28;20125;-77
2023/04/09 09:48:58;;;;;;;15.50;6.25;;;;;;;-147.53;100.00;57128.34;10544154;28;20048;-77
2023/04/09 09:54:01;;;;;;;12.65;5.53;;;;;;;-147.53;100.00;57128.34;10553885;28;20455;-78
2023/04/09 09:59:25;;;;;;;12.00;6.13;;;;;;;-147.53;100.00;57128.34;10566143;28;20410;-77
2023/04/09 10:04:28;;;;;;;13.38;5.93;;;;;;;-147.53;100.00;57128.34;10542381;28;20028;-77
2023/04/09 10:09:31;;;;;;;15.48;6.15;;;;;;;-147.53;100.00;57128.34;10548232;28;20055;-77
2023/04/09 10:14:34;;;;;;;14.25;6.05;;;;;;;-147.53;100.00;57128.34;10534515;28;20044;-77
2023/04/09 10:19:45;;;;;;;12.18;5.85;;;;;;;-147.53;100.00;57128.34;10542928;28;20085;-77
2023/04/09 10:24:47;;;;;;;13.70;6.35;;;;;;;-147.53;100.00;57128.34;10525306;28;20043;-77
2023/04/09 10:29:50;;;;;;;15.30;6.00;;;;;;;-147.53;100.00;57128.34;10542575;28;20508;-77
2023/04/09 10:34:57;;;;;;;13.73;6.05;;;;;;;-147.53;100.00;57128.34;10541685;28;20049;-77
2023/04/09 10:39:58;;;;;;;16.50;8.10;;;;;;;-147.53;100.00;57128.34;10536896;28;24521;-77
2023/04/09 10:45:10;;;;;;;11.70;5.40;;;;;;;-147.53;100.00;57128.34;10549253;28;20047;-77
2023/04/09 10:50:17;;;;;;;13.65;6.20;;;;;;;-147.53;53.79;57128.34;10535942;28;20048;-77
2023/04/09 10:55:48;;;;;;;15.13;7.38;;;;;;;13.78;57.36;102467.59;10554661;28;20043;-77
2023/04/09 11:00:50;;;;;;;13.15;5.40;;;;;;;13.45;57.23;102473.59;10547608;28;20059;-77
2023/04/09 11:06:00;;;;;;;20.13;8.65;;;;;;;-147.53;100.00;57128.34;10558555;28;20047;-77
2023/04/09 11:11:02;;;;;;;10.82;4.30;;;;;;;-147.53;100.00;57128.34;10528871;28;20050;-77
2023/04/09 11:16:05;;;;;;;9.52;4.72;;;;;;;-147.53;100.00;57128.34;10557097;28;20047;-77
2023/04/09 11:21:09;;;;;;;13.02;5.45;;;;;;;-147.53;100.00;57128.34;10543048;28;20064;-77
2023/04/09 11:26:10;;;;;;;11.95;5.03;;;;;;;-147.53;100.00;57128.34;10529164;28;20040;-77
2023/04/09 11:31:12;;;;;;;11.20;5.03;;;;;;;-147.53;100.00;57128.34;10530100;28;20046;-77
2023/04/09 11:36:13;;;;;;;16.98;4.40;;;;;;;-147.53;100.00;57128.34;10539404;28;20491;-77
2023/04/09 11:41:15;;;;;;;10.38;5.10;;;;;;;-147.53;100.00;57128.34;10546526;28;20040;-77
2023/04/09 11:46:17;;;;;;;12.50;5.45;;;;;;;-147.53;100.00;57128.34;10555605;28;20039;-77
2023/04/09 11:51:19;;;;;;;11.07;5.30;;;;;;;-147.53;100.00;57128.34;10546678;28;20040;-77
2023/04/09 11:56:20;;;;;;;14.90;6.07;;;;;;;-147.53;100.00;57128.34;10539193;28;20043;-77
2023/04/09 12:01:22;;;;;;;12.00;4.90;;;;;;;-147.53;100.00;57128.34;10556299;28;20421;-77
2023/04/09 12:06:24;;;;;;;12.68;4.95;;;;;;;-147.53;100.00;57128.34;10541960;28;20032;-77
2023/04/09 12:11:30;;;;;;;12.80;5.28;;;;;;;-147.53;100.00;57128.34;10561567;28;20423;-78
2023/04/09 12:16:35;;;;;;;13.43;5.80;;;;;;;-147.53;100.00;57128.34;10543531;28;20511;-77
2023/04/09 12:21:51;;;;;;;10.40;5.50;;;;;;;-147.53;100.00;57128.34;10533280;28;20035;-76
2023/04/09 12:26:53;;;;;;;12.45;6.38;;;;;;;-147.53;100.00;57128.34;10547573;28;20056;-78
2023/04/09 12:31:54;;;;;;;12.63;5.57;;;;;;;-147.53;100.00;57128.34;10538099;28;20043;-76
2023/04/09 12:36:56;;;;;;;16.00;6.43;;;;;;;-147.53;100.00;57128.34;10538667;28;20475;-77
2023/04/09 12:41:57;;;;;;;13.57;6.93;;;;;;;-147.53;100.00;57128.34;10547146;28;20036;-77
2023/04/09 12:46:59;;;;;;;12.13;6.25;;;;;;;-147.53;100.00;57128.34;10563506;28;20051;-77
2023/04/09 12:52:01;;;;;;;11.63;5.40;;;;;;;-147.53;100.00;57128.34;10546391;28;20507;-77
2023/04/09 12:57:02;;;;;;;16.48;6.72;;;;;;;-147.53;100.00;57128.34;10537725;28;20139;-77
2023/04/09 13:02:04;;;;;;;14.95;6.78;;;;;;;-147.53;100.00;57128.34;10536812;28;20484;-77
2023/04/09 13:07:06;;;;;;;14.85;5.82;;;;;;;-147.53;100.00;57128.34;10552680;28;20058;-77
2023/04/09 13:12:07;;;;;;;13.52;6.10;;;;;;;-147.53;100.00;57128.34;10547180;28;20032;-77
2023/04/09 13:17:09;;;;;;;13.50;6.00;;;;;;;-147.53;100.00;57128.34;10561169;28;20048;-77
2023/04/09 13:22:11;;;;;;;13.10;5.30;;;;;;;-147.53;100.00;57128.34;10550032;28;20053;-77
2023/04/09 13:27:13;;;;;;;12.07;5.65;;;;;;;-147.53;100.00;57128.34;10554904;28;20047;-77
2023/04/09 13:32:17;;;;;;;15.88;5.25;;;;;;;-147.53;100.00;57128.34;10552817;28;20049;-76
2023/04/09 13:37:18;;;;;;;11.40;5.05;;;;;;;-147.53;100.00;57128.34;10553343;28;20431;-76
2023/04/09 13:42:20;;;;;;;13.43;5.78;;;;;;;-147.53;100.00;57128.34;10552380;28;20043;-76
2023/04/09 13:47:22;;;;;;;13.18;5.63;;;;;;;-147.53;100.00;57128.34;10555475;28;20702;-76
2023/04/09 13:52:25;;;;;;;11.55;4.38;;;;;;;-147.53;100.00;57128.34;10529669;28;20043;-76
2023/04/09 13:57:30;;;;;;;12.40;4.82;;;;;;;-147.53;100.00;57128.34;10535508;28;20039;-77
2023/04/09 14:02:31;;;;;;;12.88;5.05;;;;;;;-147.53;100.00;57128.34;10542616;28;20043;-77
2023/04/09 14:07:33;;;;;;;9.65;4.45;;;;;;;-147.53;100.00;57128.34;10555023;28;20047;-76
2023/04/09 14:12:35;;;;;;;11.60;4.93;;;;;;;-147.53;100.00;57128.34;10548071;28;20110;-76
2023/04/09 14:17:36;;;;;;;9.70;4.13;;;;;;;-147.53;100.00;57128.34;10558495;28;20055;-76
2023/04/09 14:22:38;;;;;;;9.15;4.13;;;;;;;-147.53;100.00;57128.34;10526629;28;20036;-77
2023/04/09 14:27:40;;;;;;;9.63;4.32;;;;;;;-147.53;100.00;57128.34;10556141;28;20043;-76
2023/04/09 14:32:42;;;;;;;15.35;4.82;;;;;;;-147.53;100.00;57128.34;10559610;28;20040;-77
2023/04/09 14:37:43;;;;;;;10.13;4.72;;;;;;;-147.53;100.00;57128.34;10543512;28;20131;-77
2023/04/09 14:42:45;;;;;;;11.63;4.70;;;;;;;-147.53;100.00;57128.34;10557963;28;20491;-77
2023/04/09 14:47:46;;;;;;;9.15;4.20;;;;;;;-147.53;100.00;57128.34;10524802;28;20455;-76
2023/04/09 14:52:48;;;;;;;9.57;4.68;;;;;;;-147.53;100.00;57128.34;10540325;28;20065;-76
2023/04/09 14:57:49;;;;;;;9.02;4.32;;;;;;;-147.53;100.00;57128.34;10548557;28;20046;-76
2023/04/09 15:02:51;;;;;;;12.00;5.65;;;;;;;-147.53;100.00;57128.34;10531103;28;20033;-76
2023/04/09 15:07:54;;;;;;;10.18;4.72;;;;;;;-147.53;100.00;57128.34;10557493;28;20131;-77
2023/04/09 15:12:55;;;;;;;9.07;4.32;;;;;;;-147.53;100.00;57128.34;10538661;28;20062;-76
2023/04/09 15:18:04;;;;;;;9.25;4.53;;;;;;;-147.53;100.00;57128.34;10556405;28;20647;-76
2023/04/09 15:23:05;;;;;;;9.63;4.00;;;;;;;-147.53;100.00;57128.34;10539352;28;20039;-76
2023/04/09 15:28:07;;;;;;;11.27;4.55;;;;;;;-147.53;100.00;57128.34;10513173;28;20130;-76
2023/04/09 15:33:08;;;;;;;10.48;4.22;;;;;;;-147.53;100.00;57128.34;10555941;28;20051;-76
2023/04/09 15:38:10;;;;;;;9.10;4.32;;;;;;;-147.53;100.00;57128.34;10546972;28;20504;-77
2023/04/09 15:43:12;;;;;;;10.85;4.40;;;;;;;-147.53;100.00;57128.34;10555489;28;20038;-77
2023/04/09 15:48:13;;;;;;;9.35;4.25;;;;;;;-147.53;100.00;57128.34;10532589;28;20056;-77
2023/04/09 15:53:15;;;;;;;8.98;4.30;;;;;;;-147.53;100.00;57128.34;10541598;28;20504;-76
2023/04/09 15:58:16;;;;;;;8.80;3.63;;;;;;;-147.53;100.00;57128.34;10566997;28;20044;-76
2023/04/09 16:03:18;;;;;;;9.52;3.92;;;;;;;-147.53;100.00;57128.34;10555633;28;20043;-76
2023/04/09 16:08:19;;;;;;;12.48;3.85;;;;;;;-147.53;100.00;57128.34;10547212;28;20047;-76
2023/04/09 16:13:21;;;;;;;11.35;4.50;;;;;;;-147.53;100.00;57128.34;10555723;28;20496;-76
2023/04/09 16:18:24;;;;;;;9.88;4.45;;;;;;;-147.53;100.00;57128.34;10562763;28;20140;-76
2023/04/09 16:23:26;;;;;;;9.45;3.55;;;;;;;-147.53;100.00;57128.34;10534468;28;20043;-76
2023/04/09 16:28:31;;;;;;;10.35;4.13;;;;;;;-147.53;100.00;57128.34;10553716;28;20435;-76
2023/04/09 16:33:32;;;;;;;9.98;4.15;;;;;;;-147.53;100.00;57128.34;10545646;28;20046;-76
2023/04/09 16:38:34;;;;;;;10.70;4.57;;;;;;;-147.53;100.00;57128.34;10543830;28;20044;-77
2023/04/09 16:43:35;;;;;;;12.13;4.65;;;;;;;-147.53;100.00;57128.34;10554389;28;20040;-76
2023/04/09 16:48:40;;;;;;;11.40;4.18;;;;;;;-147.53;100.00;57128.34;10532769;28;20679;-77
2023/04/09 16:53:42;;;;;;;12.35;4.72;;;;;;;-147.53;100.00;57128.34;10528380;28;20043;-77
2023/04/09 16:58:45;;;;;;;9.20;4.32;;;;;;;-147.53;100.00;57128.34;10558832;28;20047;-76
2023/04/09 17:03:48;;;;;;;8.35;4.38;;;;;;;-147.53;100.00;57128.34;10540637;28;20036;-76
2023/04/09 17:08:49;;;;;;;12.73;5.15;;;;;;;-147.53;100.00;57128.34;10545418;28;20094;-76
2023/04/09 17:13:52;;;;;;;9.68;4.05;;;;;;;-147.53;100.00;57128.34;10526783;28;20042;-76
2023/04/09 17:18:54;;;;;;;11.70;4.82;;;;;;;-147.53;100.00;57128.34;10527428;28;20044;-77
2023/04/09 17:23:56;;;;;;;11.00;4.72;;;;;;;-147.53;100.00;57128.34;10552259;28;20037;-77
2023/04/09 17:28:57;;;;;;;11.55;3.70;;;;;;;-147.53;100.00;57128.34;10514826;28;20102;-76
2023/04/09 17:33:59;;;;;;;11.93;4.75;;;;;;;-147.53;100.00;57128.34;10527409;28;20063;-77
2023/04/09 17:39:01;;;;;;;11.55;4.38;;;;;;;-147.53;100.00;57128.34;10559930;28;20526;-76
2023/04/09 17:44:03;;;;;;;11.00;4.85;;;;;;;-147.53;100.00;57128.34;10568896;28;20043;-76
2023/04/09 17:49:05;;;;;;;10.30;4.63;;;;;;;-147.53;100.00;57128.34;10567594;28;20067;-76
2023/04/09 17:54:06;;;;;;;12.60;5.32;;;;;;;-147.53;100.00;57128.34;10567904;28;20063;-76
2023/04/09 17:59:08;;;;;;;12.15;4.85;;;;;;;-147.53;100.00;57128.34;10542556;28;20043;-76
2023/04/09 18:04:09;;;;;;;10.90;4.25;;;;;;;-147.53;100.00;57128.34;10570206;28;20054;-76
2023/04/09 18:09:12;;;;;;;13.50;5.13;;;;;;;-147.53;100.00;57128.34;10550206;28;20138;-77
2023/04/09 18:14:14;;;;;;;10.93;4.38;;;;;;;-147.53;100.00;57128.34;10498584;28;20055;-77
2023/04/09 18:19:15;;;;;;;13.45;5.18;;;;;;;-147.53;100.00;57128.34;10525127;28;20040;-77
2023/04/09 18:24:17;;;;;;;13.93;5.40;;;;;;;-147.53;100.00;57128.34;10541016;28;20620;-76
2023/04/09 18:29:19;;;;;;;9.82;4.65;;;;;;;-147.53;100.00;57128.34;10542160;28;20111;-76
2023/04/09 18:34:20;;;;;;;11.57;5.10;;;;;;;-147.53;100.00;57128.34;10524843;28;20036;-77
2023/04/09 18:39:23;;;;;;;12.02;5.22;;;;;;;-147.53;100.00;57128.34;10525141;28;20048;-77
2023/04/09 18:44:24;;;;;;;13.15;6.40;;;;;;;-147.53;100.00;57128.34;10547081;28;20432;-77
2023/04/09 18:49:26;;;;;;;12.90;5.50;;;;;;;-147.53;100.00;57128.34;10528612;28;20131;-76
2023/04/09 18:54:28;;;;;;;9.07;4.32;;;;;;;-147.53;100.00;57128.34;10533061;28;20068;-76
2023/04/09 18:59:32;;;;;;;9.52;4.53;;;;;;;-147.53;100.00;57128.34;10546610;28;20040;-76
2023/04/09 19:04:35;;;;;;;14.50;6.28;;;;;;;-147.53;100.00;57128.34;10551386;28;20071;-77
2023/04/09 19:09:37;;;;;;;11.02;5.30;;;;;;;-147.53;100.00;57128.34;10539141;28;20040;-77
2023/04/09 19:14:39;;;;;;;14.38;5.90;;;;;;;-147.53;100.00;57128.34;10529286;28;20043;-76
2023/04/09 19:19:41;;;;;;;12.00;5.10;;;;;;;-147.53;100.00;57128.34;10545167;28;20057;-76
2023/04/09 19:24:43;;;;;;;16.45;6.13;;;;;;;-147.53;100.00;57128.34;10527719;28;20221;-76
2023/04/09 19:29:45;;;;;;;14.02;6.32;;;;;;;-147.53;100.00;57128.34;10528431;28;20048;-76
2023/04/09 19:34:47;;;;;;;18.02;5.93;;;;;;;-147.53;100.00;57128.34;10545630;28;20178;-77
2023/04/09 19:39:48;;;;;;;13.25;5.38;;;;;;;-147.53;100.00;57128.34;10540572;28;20055;-76
2023/04/09 19:44:50;;;;;;;15.27;6.72;;;;;;;-147.53;100.00;57128.34;10541722;28;20039;-76
2023/04/09 19:49:54;;;;;;;14.77;6.53;;;;;;;-147.53;100.00;57128.34;10538482;28;20032;-76
2023/04/09 19:54:56;;;;;;;17.98;7.55;;;;;;;-147.53;100.00;57128.34;10545148;28;20048;-76
2023/04/09 19:59:58;;;;;;;16.17;8.13;;;;;;;-147.53;100.00;57128.34;10526555;28;20039;-76
2023/04/09 20:04:59;;;;;;;14.35;6.88;;;;;;;-147.53;100.00;57128.34;10547197;28;20054;-77
2023/04/09 20:10:01;;;;;;;17.15;7.32;;;;;;;-147.53;100.00;57128.34;10548761;28;20055;-77
2023/04/09 20:15:03;;;;;;;19.48;7.72;;;;;;;-147.53;100.00;57128.34;10540950;28;20044;-77
2023/04/09 20:20:05;;;;;;;18.63;8.43;;;;;;;-147.53;100.00;57128.34;10553330;28;20055;-76
2023/04/09 20:25:08;;;;;;;19.52;7.78;;;;;;;-147.53;100.00;57128.34;10547738;28;20042;-76
2023/04/09 20:30:10;;;;;;;17.52;8.40;;;;;;;-147.53;100.00;57128.34;10536686;28;20055;-76
2023/04/09 20:35:13;;;;;;;15.23;7.05;;;;;;;-147.53;100.00;57128.34;10537433;28;20051;-76
2023/04/09 20:40:15;;;;;;;18.90;8.32;;;;;;;-147.53;100.00;57128.34;10537803;28;20047;-76
2023/04/09 20:45:16;;;;;;;18.35;7.88;;;;;;;-147.53;100.00;57128.34;10538410;28;20095;-76
2023/04/09 20:50:18;;;;;;;16.63;7.97;;;;;;;-147.53;100.00;57128.34;10539206;28;20097;-76
2023/04/09 20:55:20;;;;;;;16.25;7.20;;;;;;;-147.53;100.00;57128.34;10541183;28;20220;-76
2023/04/09 21:00:21;;;;;;;17.50;7.63;;;;;;;-147.53;100.00;57128.34;10554747;28;20044;-77
2023/04/09 21:05:23;;;;;;;22.10;7.38;;;;;;;-147.53;100.00;57128.34;10536345;28;20044;-77
2023/04/09 21:10:24;;;;;;;20.58;7.75;;;;;;;-147.53;100.00;57128.34;10553221;28;20080;-77
2023/04/09 21:15:26;;;;;;;21.17;7.75;;;;;;;-147.53;100.00;57128.34;10536403;28;20423;-77
2023/04/09 21:20:28;;;;;;;15.15;7.20;;;;;;;-147.53;100.00;57128.34;10546592;28;20050;-77
2023/04/09 21:25:29;;;;;;;23.92;8.43;;;;;;;-147.53;100.00;57128.34;10545311;28;20235;-76
2023/04/09 21:30:32;;;;;;;12.82;6.43;;;;;;;-147.53;100.00;57128.34;10536898;28;20051;-77
2023/04/09 21:35:35;;;;;;;14.07;6.28;;;;;;;-147.53;100.00;57128.34;10524104;28;20057;-76
2023/04/09 21:40:36;;;;;;;14.13;6.07;;;;;;;-147.53;100.00;57128.34;10543420;28;20040;-76
2023/04/09 21:45:38;;;;;;;13.98;6.03;;;;;;;-147.53;100.00;57128.34;10543408;28;20100;-77
2023/04/09 21:50:40;;;;;;;15.18;6.47;;;;;;;-147.53;100.00;57128.34;10525768;28;20054;-76
2023/04/09 21:55:42;;;;;;;17.70;6.57;;;;;;;-147.53;100.00;57128.34;10543664;28;20047;-76
2023/04/09 22:00:43;;;;;;;17.70;6.22;;;;;;;-147.53;100.00;57128.34;10537572;28;20055;-77
2023/04/09 22:05:45;;;;;;;13.77;6.55;;;;;;;-147.53;100.00;57128.34;10543805;28;20062;-77
2023/04/09 22:10:46;;;;;;;14.23;5.45;;;;;;;-147.53;100.00;57128.34;10534738;28;20407;-76
2023/04/09 22:15:48;;;;;;;12.68;5.35;;;;;;;-147.53;100.00;57128.34;10558419;28;20044;-75
2023/04/09 22:20:49;;;;;;;13.20;5.82;;;;;;;-147.53;100.00;57128.34;10536423;28;20575;-76
2023/04/09 22:26:03;;;;;;;14.00;6.32;;;;;;;-147.53;100.00;57128.34;10535771;28;20488;-77
2023/04/09 22:31:05;;;;;;;12.77;5.90;;;;;;;-147.53;100.00;57128.34;10534629;28;20105;-76
2023/04/09 22:36:07;;;;;;;11.52;5.57;;;;;;;-147.53;100.00;57128.34;10538781;28;20043;-76
2023/04/09 22:41:08;;;;;;;;;;;;;;;-147.53;100.00;57128.34;10554399;28;20064;-76